Time;durP1;ratioP1;P1;durP2;ratioP2;P2;SDS_P1;SDS_P2;PMS_P1;PMS_P2;Temp;Humidity;BMP_temperature;BMP_pressure;BME280_temperature;BME280_humidity;BME280_pressure;Samples;Min_cycle;Max_cycle;Signal;HPM_P1;HPM_P2
2023/04/16 00:02:11;;;;;;;59.87;20.03;;;8.50;99.90;;;;;;5110352;28;20277;-81
2023/04/16 00:04:37;;;;;;;63.00;19.80;;;8.50;99.90;;;;;;5093087;28;20122;-81
2023/04/16 00:07:03;;;;;;;61.20;21.20;;;8.50;99.90;;;;;;5093494;28;20177;-81
2023/04/16 00:09:28;;;;;;;66.32;20.13;;;8.50;99.90;;;;;;5093561;28;20114;-81
2023/04/16 00:11:54;;;;;;;64.72;20.52;;;8.50;99.90;;;;;;5093387;28;20074;-81
2023/04/16 00:14:20;;;;;;;57.72;19.77;;;8.50;99.90;;;;;;5092954;28;20040;-81
2023/04/16 00:16:46;;;;;;;62.20;19.48;;;8.50;99.90;;;;;;5110775;28;20047;-81
2023/04/16 00:19:12;;;;;;;69.30;20.13;;;8.50;99.90;;;;;;5093680;28;20039;-81
2023/04/16 00:21:37;;;;;;;50.17;18.57;;;8.50;99.90;;;;;;5093604;28;20086;-81
2023/04/16 00:24:03;;;;;;;62.72;19.52;;;8.50;99.90;;;;;;5109753;28;20114;-81
2023/04/16 00:26:29;;;;;;;60.25;19.23;;;8.40;99.90;;;;;;5109988;28;20053;-81
2023/04/16 00:28:55;;;;;;;65.20;20.20;;;8.40;99.90;;;;;;5110632;28;20471;-81
2023/04/16 00:31:28;;;;;;;71.75;20.73;;;8.40;99.90;;;;;;5093313;28;20035;-81
2023/04/16 00:33:54;;;;;;;53.47;20.42;;;8.40;99.90;;;;;;5093922;28;20502;-81
2023/04/16 00:36:22;;;;;;;58.05;20.20;;;8.40;99.90;;;;;;5092727;28;20046;-81
2023/04/16 00:38:47;;;;;;;61.97;19.60;;;8.40;99.90;;;;;;5107668;28;20039;-81
2023/04/16 00:41:13;;;;;;;69.68;21.27;;;8.40;99.90;;;;;;5093175;28;20066;-81
2023/04/16 00:43:39;;;;;;;62.85;21.13;;;8.40;99.90;;;;;;5079882;28;20064;-81
2023/04/16 00:46:06;;;;;;;51.67;19.10;;;8.40;99.90;;;;;;5079697;28;20031;-81
2023/04/16 00:48:33;;;;;;;56.63;20.83;;;8.40;99.90;;;;;;5077154;28;20069;-81
2023/04/16 00:51:00;;;;;;;58.25;19.67;;;8.40;99.90;;;;;;5113492;28;20172;-81
2023/04/16 00:53:26;;;;;;;60.08;20.90;;;8.40;99.90;;;;;;5095950;28;20040;-81
2023/04/16 00:55:54;;;;;;;59.67;19.92;;;8.40;99.90;;;;;;5113534;28;20042;-81
2023/04/16 00:58:20;;;;;;;53.22;20.15;;;8.40;99.90;;;;;;5095988;28;20036;-81
2023/04/16 01:00:50;;;;;;;53.42;20.65;;;8.30;99.90;;;;;;5113297;28;20406;-81
2023/04/16 01:03:16;;;;;;;55.78;20.92;;;8.30;99.90;;;;;;5095859;28;20518;-81
2023/04/16 01:05:42;;;;;;;61.55;22.48;;;8.30;99.90;;;;;;5113910;28;20119;-81
2023/04/16 01:08:15;;;;;;;;;;;8.30;99.90;;;;;;5097015;28;20072;-81
2023/04/16 01:10:40;;;;;;;60.28;20.90;;;8.30;99.90;;;;;;5096100;28;19922;-81
2023/04/16 01:13:06;;;;;;;51.30;21.07;;;8.20;99.90;;;;;;5096308;28;20339;-80
2023/04/16 01:15:32;;;;;;;69.03;22.65;;;8.20;99.90;;;;;;5095903;28;20335;-80
2023/04/16 01:17:58;;;;;;;70.85;22.75;;;8.20;99.90;;;;;;5079793;28;20032;-81
2023/04/16 01:20:23;;;;;;;71.80;22.38;;;8.20;99.90;;;;;;5079142;28;20036;-80
2023/04/16 01:22:49;;;;;;;67.63;23.73;;;8.20;99.90;;;;;;5063068;28;20024;-80
2023/04/16 01:25:15;;;;;;;81.55;23.85;;;8.20;99.90;;;;;;5112918;28;20281;-81
2023/04/16 01:27:41;;;;;;;62.97;21.10;;;8.20;99.90;;;;;;5095984;28;20027;-81
2023/04/16 01:30:07;;;;;;;65.55;22.98;;;8.20;99.90;;;;;;5096226;28;20043;-81
2023/04/16 01:32:32;;;;;;;73.18;24.73;;;8.20;99.90;;;;;;5096172;28;20488;-81
2023/04/16 01:34:58;;;;;;;75.57;23.90;;;8.20;99.90;;;;;;5113308;28;20046;-81
2023/04/16 01:37:24;;;;;;;78.85;23.58;;;8.20;99.90;;;;;;5113223;28;20040;-81
2023/04/16 01:39:49;;;;;;;83.65;23.55;;;8.20;99.90;;;;;;5113661;28;20411;-81
2023/04/16 01:42:15;;;;;;;72.07;23.10;;;8.20;99.90;;;;;;5079763;28;20126;-81
2023/04/16 01:44:41;;;;;;;68.43;22.83;;;8.20;99.90;;;;;;5113480;28;20302;-80
2023/04/16 01:47:07;;;;;;;75.10;23.87;;;8.20;99.90;;;;;;5113355;28;20119;-81
2023/04/16 01:49:33;;;;;;;81.65;23.83;;;8.30;99.90;;;;;;5077944;28;20278;-81
2023/04/16 01:51:59;;;;;;;70.47;22.38;;;8.30;99.90;;;;;;5111704;28;20047;-81
2023/04/16 01:54:25;;;;;;;67.13;21.60;;;8.30;99.90;;;;;;5095061;28;20093;-81
2023/04/16 01:56:50;;;;;;;69.97;22.77;;;8.30;99.90;;;;;;5094543;28;20045;-81
2023/04/16 01:59:16;;;;;;;76.57;24.67;;;8.50;99.90;;;;;;5078286;28;20277;-81
2023/04/16 02:01:42;;;;;;;69.28;23.80;;;8.20;99.90;;;;;;5094849;28;20088;-81
2023/04/16 02:04:08;;;;;;;71.30;22.27;;;8.30;99.90;;;;;;5078402;28;20139;-81
2023/04/16 02:06:34;;;;;;;77.80;23.73;;;8.30;99.90;;;;;;5094828;28;20028;-81
2023/04/16 02:08:59;;;;;;;63.50;20.13;;;8.20;99.90;;;;;;5094802;28;20055;-81
2023/04/16 02:11:25;;;;;;;68.63;21.63;;;8.30;99.90;;;;;;5094389;28;20114;-81
2023/04/16 02:13:51;;;;;;;70.85;21.65;;;8.40;99.90;;;;;;5095150;28;20043;-81
2023/04/16 02:16:16;;;;;;;79.10;23.30;;;8.30;99.90;;;;;;5094777;28;20426;-81
2023/04/16 02:18:42;;;;;;;76.97;21.57;;;8.30;99.90;;;;;;5111161;28;20281;-81
2023/04/16 02:21:08;;;;;;;81.53;22.63;;;8.30;99.90;;;;;;5076627;28;20297;-81
2023/04/16 02:23:33;;;;;;;80.75;23.00;;;8.30;99.90;;;;;;5076722;28;20042;-81
2023/04/16 02:25:59;;;;;;;80.80;23.05;;;8.30;99.90;;;;;;5111683;28;20031;-81
2023/04/16 02:28:25;;;;;;;87.57;22.80;;;8.30;99.90;;;;;;5091865;28;20100;-81
2023/04/16 02:30:51;;;;;;;91.32;24.38;;;8.40;99.90;;;;;;5092126;28;20036;-81
2023/04/16 02:33:16;;;;;;;76.67;22.33;;;8.40;99.90;;;;;;5094486;28;20475;-81
2023/04/16 02:35:42;;;;;;;80.80;22.55;;;8.30;99.90;;;;;;5094365;28;20498;-81
2023/04/16 02:38:08;;;;;;;90.95;23.85;;;8.30;99.90;;;;;;5077571;28;20051;-81
2023/04/16 02:40:34;;;;;;;86.75;23.35;;;8.30;99.90;;;;;;5094268;28;20039;-81
2023/04/16 02:43:00;;;;;;;72.88;22.00;;;8.30;99.90;;;;;;5093698;28;20126;-81
2023/04/16 02:45:26;;;;;;;72.22;22.55;;;8.30;99.90;;;;;;5093650;28;20044;-81
2023/04/16 02:47:52;;;;;;;72.40;21.58;;;8.30;99.90;;;;;;5069196;28;1186024;-81
2023/04/16 02:50:18;;;;;;;82.32;22.80;;;8.20;99.90;;;;;;5095063;28;20067;-81
2023/04/16 02:52:43;;;;;;;73.22;23.98;;;8.30;99.90;;;;;;5095104;28;20051;-81
2023/04/16 02:55:10;;;;;;;63.13;22.65;;;8.30;99.90;;;;;;5095086;28;20058;-81
2023/04/16 02:57:36;;;;;;;72.63;21.85;;;8.20;99.90;;;;;;5077762;28;20046;-81
2023/04/16 03:00:03;;;;;;;68.03;21.30;;;8.30;99.90;;;;;;5111780;28;20444;-81
2023/04/16 03:02:29;;;;;;;73.15;21.45;;;8.20;99.90;;;;;;5111493;28;20499;-81
2023/04/16 03:04:55;;;;;;;68.22;19.92;;;8.20;99.90;;;;;;5110627;28;20120;-81
2023/04/16 03:07:21;;;;;;;63.58;19.83;;;8.20;99.90;;;;;;5095089;28;20061;-81
2023/04/16 03:09:49;;;;;;;65.13;22.00;;;8.20;99.90;;;;;;5094464;28;20039;-81
2023/04/16 03:12:15;;;;;;;73.70;21.90;;;8.20;99.90;;;;;;5094377;28;20082;-81
2023/04/16 03:14:41;;;;;;;55.30;19.53;;;8.20;99.90;;;;;;5111106;28;20184;-81
2023/04/16 03:17:06;;;;;;;65.78;20.38;;;8.20;99.90;;;;;;5077738;28;20027;-81
2023/04/16 03:19:32;;;;;;;69.00;20.80;;;8.20;99.90;;;;;;5111383;28;20118;-81
2023/04/16 03:21:58;;;;;;;66.83;20.77;;;8.10;99.90;;;;;;5077607;28;20039;-81
2023/04/16 03:24:23;;;;;;;75.17;22.50;;;8.10;99.90;;;;;;5111297;28;20300;-81
2023/04/16 03:26:49;;;;;;;68.93;20.83;;;8.10;99.90;;;;;;5093919;28;20277;-81
2023/04/16 03:29:15;;;;;;;93.13;22.50;;;8.10;99.90;;;;;;5093990;28;20282;-81
2023/04/16 03:31:40;;;;;;;80.75;21.42;;;8.10;99.90;;;;;;5110853;28;20032;-81
2023/04/16 03:34:06;;;;;;;82.03;23.67;;;8.10;99.90;;;;;;5093960;28;20031;-81
2023/04/16 03:36:32;;;;;;;89.33;21.23;;;8.10;99.90;;;;;;5077093;28;20273;-81
2023/04/16 03:38:57;;;;;;;74.72;21.75;;;8.10;99.90;;;;;;5077711;28;20035;-81
2023/04/16 03:41:23;;;;;;;69.35;21.52;;;8.00;99.90;;;;;;5110696;28;20044;-81
2023/04/16 03:43:49;;;;;;;70.22;21.48;;;8.00;99.90;;;;;;5108412;28;20134;-81
2023/04/16 03:46:15;;;;;;;72.53;20.87;;;8.00;99.90;;;;;;5110820;28;20035;-81
2023/04/16 03:48:40;;;;;;;77.10;20.13;;;8.10;99.90;;;;;;5073435;28;20048;-81
2023/04/16 03:51:06;;;;;;;71.93;21.27;;;8.10;99.90;;;;;;5110292;28;20111;-81
2023/04/16 03:53:32;;;;;;;78.23;22.27;;;8.00;99.90;;;;;;5076461;28;20032;-81
2023/04/16 03:55:58;;;;;;;74.90;20.23;;;8.10;99.90;;;;;;5094094;28;20042;-81
2023/04/16 03:58:23;;;;;;;82.05;21.92;;;8.00;99.90;;;;;;5093800;28;20036;-81
2023/04/16 04:00:52;;;;;;;67.45;20.30;;;8.00;99.90;;;;;;5093405;28;20514;-81
2023/04/16 04:03:18;;;;;;;70.68;20.30;;;8.00;99.90;;;;;;5110691;28;20478;-81
2023/04/16 04:05:43;;;;;;;69.10;21.02;;;8.00;99.90;;;;;;5076411;28;20040;-81
2023/04/16 04:08:10;;;;;;;77.33;21.13;;;8.00;99.90;;;;;;5093457;28;20476;-81
2023/04/16 04:10:36;;;;;;;74.78;20.92;;;8.00;99.90;;;;;;5110249;28;20488;-81
2023/04/16 04:13:03;;;;;;;75.63;19.33;;;8.00;99.90;;;;;;5093166;28;20032;-81
2023/04/16 04:15:29;;;;;;;77.47;21.55;;;8.00;99.90;;;;;;5092999;28;20656;-81
2023/04/16 04:17:55;;;;;;;60.75;20.08;;;8.00;99.90;;;;;;5076268;28;20119;-81
2023/04/16 04:20:21;;;;;;;63.83;20.13;;;7.90;99.90;;;;;;5110535;28;20043;-81
2023/04/16 04:22:47;;;;;;;66.90;19.00;;;8.00;99.90;;;;;;5093570;28;20039;-81
2023/04/16 04:25:13;;;;;;;62.35;17.98;;;8.00;99.90;;;;;;5110367;28;20122;-81
2023/04/16 04:27:39;;;;;;;58.53;19.80;;;8.00;99.90;;;;;;5092823;28;20032;-81
2023/04/16 04:30:06;;;;;;;62.55;19.13;;;8.00;99.90;;;;;;5060131;28;20034;-81
2023/04/16 04:32:31;;;;;;;57.17;18.55;;;8.00;99.90;;;;;;5093094;28;20055;-81
2023/04/16 04:35:00;;;;;;;71.57;19.90;;;7.90;99.90;;;;;;5093283;28;20036;-81
2023/04/16 04:37:26;;;;;;;66.57;19.77;;;8.00;99.90;;;;;;5109882;28;20354;-81
2023/04/16 04:39:51;;;;;;;60.03;18.33;;;8.00;99.90;;;;;;5092825;28;20126;-81
2023/04/16 04:42:19;;;;;;;60.78;19.92;;;8.00;99.90;;;;;;5076674;28;20581;-81
2023/04/16 04:44:45;;;;;;;66.65;19.35;;;8.00;99.90;;;;;;5124309;28;20047;-81
2023/04/16 04:47:11;;;;;;;61.53;19.77;;;8.00;99.90;;;;;;5076311;28;20063;-81
2023/04/16 04:49:36;;;;;;;63.95;19.15;;;8.00;99.90;;;;;;5075672;28;20127;-81
2023/04/16 04:52:02;;;;;;;70.68;19.00;;;8.00;99.90;;;;;;5093208;28;20047;-81
2023/04/16 04:54:29;;;;;;;62.63;19.70;;;8.00;99.90;;;;;;5076551;28;20035;-81
2023/04/16 04:57:04;;;;;;;60.67;18.08;;;7.90;99.90;;;;;;5110045;28;20112;-81
2023/04/16 04:59:32;;;;;;;66.78;18.48;;;7.90;99.90;;;;;;5093128;28;20499;-81
2023/04/16 05:01:59;;;;;;;68.50;20.15;;;7.90;99.90;;;;;;5109528;28;20031;-81
2023/04/16 05:04:25;;;;;;;63.67;19.13;;;8.00;99.90;;;;;;5076106;28;20043;-81
2023/04/16 05:06:50;;;;;;;58.15;18.10;;;8.00;99.90;;;;;;5092564;28;20032;-81
2023/04/16 05:09:16;;;;;;;60.88;18.88;;;7.90;99.90;;;;;;5109710;28;20047;-80
2023/04/16 05:11:42;;;;;;;61.33;18.20;;;8.00;99.90;;;;;;5109413;28;20047;-81
2023/04/16 05:14:08;;;;;;;60.07;17.23;;;7.90;99.90;;;;;;5074423;28;20319;-81
2023/04/16 05:16:37;;;;;;;66.50;17.08;;;8.00;99.90;;;;;;5093111;28;20119;-81
2023/04/16 05:19:03;;;;;;;58.50;18.50;;;8.00;99.90;;;;;;5092924;28;20079;-81
2023/04/16 05:21:29;;;;;;;;;;;8.00;99.90;;;;;;5093229;28;20042;-81
2023/04/16 05:23:55;;;;;;;60.20;16.25;;;8.00;99.90;;;;;;5092394;28;20014;-81
2023/04/16 05:26:21;;;;;;;49.67;15.95;;;8.00;99.90;;;;;;5075950;28;20445;-81
2023/04/16 05:28:47;;;;;;;61.17;17.67;;;8.00;99.90;;;;;;5112562;28;20123;-81
2023/04/16 05:31:13;;;;;;;80.75;17.85;;;8.00;99.90;;;;;;5079428;28;20067;-82
2023/04/16 05:33:38;;;;;;;72.33;18.77;;;8.00;99.90;;;;;;5079261;28;20035;-81
2023/04/16 05:36:04;;;;;;;66.13;17.45;;;8.00;99.90;;;;;;5096207;28;20043;-82
2023/04/16 05:38:30;;;;;;;70.60;18.42;;;8.00;99.90;;;;;;5096055;28;20483;-81
2023/04/16 05:40:57;;;;;;;66.65;17.92;;;8.00;99.90;;;;;;5113372;28;20414;-82
2023/04/16 05:43:22;;;;;;;65.88;16.67;;;8.10;99.90;;;;;;5113528;28;20132;-81
2023/04/16 05:45:48;;;;;;;65.57;16.00;;;8.00;99.90;;;;;;5095558;28;20044;-81
2023/04/16 05:48:14;;;;;;;59.03;16.87;;;8.00;99.90;;;;;;5078752;28;20274;-81
2023/04/16 05:50:39;;;;;;;56.90;16.23;;;8.00;99.90;;;;;;5096239;28;20096;-81
2023/04/16 05:53:07;;;;;;;72.70;17.15;;;8.00;99.90;;;;;;5113005;28;20036;-82
2023/04/16 05:55:34;;;;;;;72.75;18.20;;;8.10;99.90;;;;;;5113244;28;20096;-82
2023/04/16 05:58:03;;;;;;;68.88;17.40;;;8.10;99.90;;;;;;5095619;28;20091;-82
2023/04/16 06:00:29;;;;;;;59.72;19.20;;;8.10;99.90;;;;;;5077082;28;20057;-82
2023/04/16 06:02:55;;;;;;;60.42;19.17;;;8.20;99.90;;;;;;5078924;28;20610;-82
2023/04/16 06:05:20;;;;;;;73.53;19.65;;;8.20;99.90;;;;;;5095208;28;20479;-82
2023/04/16 06:07:46;;;;;;;56.87;17.00;;;8.20;99.90;;;;;;5112489;28;20105;-77
2023/04/16 06:10:12;;;;;;;60.10;18.80;;;8.20;99.90;;;;;;5112511;28;20278;-81
2023/04/16 06:12:38;;;;;;;57.42;17.77;;;8.30;99.90;;;;;;5096071;28;20027;-81
2023/04/16 06:15:04;;;;;;;62.07;18.43;;;8.30;99.90;;;;;;5095220;28;20107;-81
2023/04/16 06:17:30;;;;;;;51.15;17.05;;;8.80;99.90;;;;;;5091197;27;20128;-81
2023/04/16 06:19:56;;;;;;;65.38;16.60;;;8.30;99.90;;;;;;5093835;28;20039;-81
2023/04/16 06:22:22;;;;;;;59.05;17.40;;;8.40;99.90;;;;;;5112442;28;20035;-81
2023/04/16 06:24:48;;;;;;;58.15;16.88;;;8.40;99.90;;;;;;5092578;28;20043;-81
2023/04/16 06:27:14;;;;;;;51.90;15.73;;;8.40;99.90;;;;;;5077644;28;20536;-82
2023/04/16 06:29:40;;;;;;;53.53;15.53;;;8.40;99.90;;;;;;5095569;28;20274;-81
2023/04/16 06:32:06;;;;;;;58.78;17.67;;;8.50;99.90;;;;;;5095709;28;20364;-79
2023/04/16 06:34:32;;;;;;;54.22;16.23;;;8.40;99.90;;;;;;5112995;28;20038;-83
2023/04/16 06:36:57;;;;;;;42.47;15.30;;;8.40;99.90;;;;;;5110558;28;20032;-83
2023/04/16 06:39:24;;;;;;;55.43;16.37;;;8.50;99.90;;;;;;5108393;28;20506;-82
2023/04/16 06:41:50;;;;;;;51.97;15.05;;;8.50;99.90;;;;;;5111254;28;20050;-82
2023/04/16 06:44:15;;;;;;;54.10;15.90;;;8.40;99.90;;;;;;5111350;28;20048;-82
2023/04/16 06:46:41;;;;;;;54.83;15.32;;;8.70;99.90;;;;;;5094992;28;20399;-82
2023/04/16 06:49:07;;;;;;;48.90;14.10;;;8.70;99.90;;;;;;5107955;28;20047;-81
2023/04/16 06:51:33;;;;;;;46.75;15.05;;;8.80;99.90;;;;;;5111362;28;20108;-82
2023/04/16 06:53:59;;;;;;;47.15;15.63;;;8.90;99.90;;;;;;5078099;28;20039;-82
2023/04/16 06:56:25;;;;;;;45.30;14.68;;;8.90;99.90;;;;;;5111825;28;20498;-83
2023/04/16 06:58:50;;;;;;;47.67;14.40;;;9.00;99.90;;;;;;5095279;28;20035;-80
2023/04/16 07:01:17;;;;;;;43.65;14.70;;;9.10;99.90;;;;;;5077994;28;20491;-81
2023/04/16 07:03:43;;;;;;;;;;;9.10;99.90;;;;;;5112057;28;20078;-79
2023/04/16 07:06:08;;;;;;;43.78;14.70;;;9.20;99.90;;;;;;5110521;28;20363;-79
2023/04/16 07:08:34;;;;;;;43.17;15.82;;;9.20;99.90;;;;;;5110981;28;20040;-79
2023/04/16 07:11:00;;;;;;;43.58;14.30;;;9.20;99.90;;;;;;5110429;28;20039;-81
2023/04/16 07:13:26;;;;;;;36.95;14.10;;;9.30;99.90;;;;;;5109095;28;20676;-81
2023/04/16 07:15:52;;;;;;;42.35;14.23;;;9.30;99.90;;;;;;5077380;28;20067;-85
2023/04/16 07:18:18;;;;;;;44.78;14.32;;;9.40;99.90;;;;;;5094948;28;20055;-82
2023/04/16 07:20:44;;;;;;;40.55;13.45;;;9.40;99.90;;;;;;5111983;28;20537;-82
2023/04/16 07:23:10;;;;;;;44.40;14.48;;;9.40;99.90;;;;;;5111593;28;20039;-82
2023/04/16 07:25:36;;;;;;;45.50;14.13;;;9.40;99.90;;;;;;5094835;28;20504;-82
2023/04/16 07:28:02;;;;;;;45.42;13.57;;;9.40;99.90;;;;;;5111466;28;20070;-82
2023/04/16 07:30:32;;;;;;;45.80;14.50;;;9.40;99.90;;;;;;5077851;28;20039;-82
2023/04/16 07:32:59;;;;;;;43.50;14.80;;;9.30;99.90;;;;;;5109054;28;20059;-82
2023/04/16 07:35:25;;;;;;;35.42;12.77;;;9.40;99.90;;;;;;5094987;28;20198;-82
2023/04/16 07:37:51;;;;;;;40.15;13.88;;;9.30;99.90;;;;;;5077360;28;20032;-82
2023/04/16 07:40:17;;;;;;;40.23;13.70;;;9.30;99.90;;;;;;5093501;28;20043;-82
2023/04/16 07:42:43;;;;;;;41.83;13.18;;;9.30;99.90;;;;;;5094235;28;20619;-82
2023/04/16 07:45:09;;;;;;;39.63;12.13;;;9.20;99.90;;;;;;5093830;28;20043;-82
2023/04/16 07:47:35;;;;;;;44.53;13.65;;;9.20;99.90;;;;;;5094580;28;20292;-82
2023/04/16 07:50:01;;;;;;;36.85;12.90;;;9.30;99.90;;;;;;5060047;28;20056;-82
2023/04/16 07:52:26;;;;;;;37.05;13.48;;;9.30;99.90;;;;;;5077612;28;20032;-82
2023/04/16 07:54:52;;;;;;;34.95;12.43;;;9.30;99.90;;;;;;5094831;28;20046;-82
2023/04/16 07:57:18;;;;;;;33.97;11.93;;;9.30;99.90;;;;;;5095554;28;20040;-82
2023/04/16 07:59:43;;;;;;;43.20;13.33;;;9.40;99.90;;;;;;5111913;28;20032;-82
2023/04/16 08:02:13;;;;;;;32.22;13.25;;;9.50;99.90;;;;;;5111477;28;20078;-81
2023/04/16 08:04:40;;;;;;;34.88;12.50;;;9.50;99.90;;;;;;5094388;28;20502;-83
2023/04/16 08:07:06;;;;;;;41.88;14.23;;;9.50;99.90;;;;;;5094144;28;20538;-82
2023/04/16 08:09:33;;;;;;;37.67;12.52;;;9.60;99.90;;;;;;5094927;28;20055;-82
2023/04/16 08:11:59;;;;;;;35.40;13.00;;;9.60;99.90;;;;;;5059086;28;20028;-83
2023/04/16 08:14:25;;;;;;;35.22;11.88;;;9.70;99.90;;;;;;5111031;28;20299;-82
2023/04/16 08:16:51;;;;;;;38.23;13.03;;;9.70;99.90;;;;;;5077171;28;20130;-82
2023/04/16 08:19:17;;;;;;;36.50;12.80;;;9.80;99.90;;;;;;5093668;28;20281;-82
2023/04/16 08:21:43;;;;;;;41.63;13.40;;;9.90;99.90;;;;;;5093849;28;20043;-82
2023/04/16 08:24:09;;;;;;;32.35;12.20;;;10.00;99.90;;;;;;5093029;28;20036;-82
2023/04/16 08:26:34;;;;;;;38.67;12.77;;;10.10;99.90;;;;;;5110534;28;20038;-82
2023/04/16 08:29:00;;;;;;;39.97;12.35;;;10.30;99.90;;;;;;5092425;28;20043;-83
2023/04/16 08:31:26;;;;;;;32.67;12.03;;;10.50;99.90;;;;;;5077381;28;20042;-82
2023/04/16 08:33:51;;;;;;;37.85;12.52;;;10.60;99.90;;;;;;5093437;28;20346;-83
2023/04/16 08:36:17;;;;;;;27.55;11.70;;;10.70;99.90;;;;;;5110065;28;20035;-82
2023/04/16 08:38:43;;;;;;;34.50;11.50;;;10.80;99.90;;;;;;5093818;28;20093;-82
2023/04/16 08:41:11;;;;;;;36.97;12.48;;;11.00;99.90;;;;;;5093218;28;20282;-82
2023/04/16 08:43:42;;;;;;;31.58;12.60;;;11.10;99.90;;;;;;5074444;28;20039;-82
2023/04/16 08:46:09;;;;;;;32.80;11.95;;;11.30;99.90;;;;;;5092284;28;20491;-82
2023/04/16 08:48:36;;;;;;;29.67;10.95;;;11.40;99.90;;;;;;5057302;28;20052;-82
2023/04/16 08:51:02;;;;;;;29.38;12.10;;;11.60;99.90;;;;;;5109167;28;20118;-82
2023/04/16 08:53:51;;;;;;;33.00;10.65;;;11.70;99.90;;;;;;5076685;28;20043;-83
2023/04/16 08:56:20;;;;;;;24.67;10.50;;;11.90;99.90;;;;;;5107036;28;20084;-83
2023/04/16 08:58:48;;;;;;;24.40;10.38;;;11.90;99.90;;;;;;5110892;28;20048;-83
2023/04/16 09:01:16;;;;;;;25.73;11.45;;;12.00;99.90;;;;;;5110114;28;20073;-82
2023/04/16 09:03:48;;;;;;;34.70;11.48;;;12.10;99.90;;;;;;5096667;28;20396;-83
2023/04/16 09:06:17;;;;;;;24.25;10.80;;;12.10;99.90;;;;;;5076014;28;20503;-83
2023/04/16 09:08:45;;;;;;;25.38;10.27;;;12.20;99.90;;;;;;5096583;28;20028;-83
2023/04/16 09:11:12;;;;;;;24.92;11.30;;;12.30;99.90;;;;;;5079798;28;20044;-81
2023/04/16 09:13:38;;;;;;;23.13;11.02;;;12.40;99.90;;;;;;5096031;28;20035;-81
2023/04/16 09:16:07;;;;;;;24.48;10.88;;;12.40;99.90;;;;;;5112964;28;20058;-81
2023/04/16 09:18:32;;;;;;;21.35;10.75;;;12.40;99.90;;;;;;5114012;28;20115;-81
2023/04/16 09:20:58;;;;;;;26.00;10.90;;;12.50;99.90;;;;;;5080010;28;20074;-81
2023/04/16 09:23:24;;;;;;;26.58;10.95;;;12.60;99.90;;;;;;5113849;28;20028;-81
2023/04/16 09:25:50;;;;;;;27.70;10.82;;;12.60;99.90;;;;;;5096113;28;20556;-81
2023/04/16 09:28:43;;;;;;;24.33;10.60;;;12.60;99.90;;;;;;5096885;28;20035;-81
2023/04/16 09:31:09;;;;;;;22.90;10.13;;;12.80;99.90;;;;;;5096387;28;20181;-82
2023/04/16 09:33:35;;;;;;;22.23;10.52;;;12.90;99.90;;;;;;5097236;28;20091;-82
2023/04/16 09:36:01;;;;;;;26.42;10.85;;;12.90;99.90;;;;;;5112923;28;20074;-82
2023/04/16 09:38:48;;;;;;;25.42;10.40;;;13.00;99.90;;;;;;5096778;28;20046;-81
2023/04/16 09:41:17;;;;;;;24.00;10.57;;;13.10;99.90;;;;;;5097920;28;20047;-83
2023/04/16 09:44:00;;;;;;;23.83;10.23;;;13.20;99.90;;;;;;5097789;28;20398;-83
2023/04/16 09:46:55;;;;;;;23.35;10.95;;;13.20;99.90;;;;;;5093715;28;20032;-87
2023/04/16 09:49:21;;;;;;;26.38;10.77;;;13.30;99.90;;;;;;5091193;28;20043;-87
2023/04/16 09:51:54;;;;;;;22.50;10.52;;;13.30;99.90;;;;;;5097164;28;20054;-86
2023/04/16 09:54:20;;;;;;;21.85;10.10;;;13.30;99.90;;;;;;5112773;28;20051;-86
2023/04/16 09:56:46;;;;;;;22.60;9.38;;;13.30;99.90;;;;;;5077035;28;20514;-86
2023/04/16 09:59:19;;;;;;;21.48;9.55;;;13.30;99.90;;;;;;5078848;28;20047;-85
2023/04/16 10:01:45;;;;;;;20.42;9.90;;;13.40;99.90;;;;;;5113939;28;20470;-85
2023/04/16 10:04:12;;;;;;;21.13;10.10;;;13.50;99.90;;;;;;5095637;28;20044;-85
2023/04/16 10:06:37;;;;;;;25.98;9.98;;;13.60;99.90;;;;;;5110800;28;20031;-85
2023/04/16 10:09:07;;;;;;;22.67;9.52;;;13.60;99.90;;;;;;5079401;28;20028;-86
2023/04/16 10:11:33;;;;;;;26.13;10.30;;;13.70;99.90;;;;;;5112969;28;20035;-85
2023/04/16 10:13:59;;;;;;;24.05;10.10;;;13.70;99.90;;;;;;5112616;28;20046;-87
2023/04/16 10:16:25;;;;;;;;;;;13.70;99.90;;;;;;5094900;28;20031;-85
2023/04/16 10:18:52;;;;;;;22.20;9.45;;;13.70;99.90;;;;;;5095996;28;19972;-85
2023/04/16 10:21:18;;;;;;;23.83;9.63;;;13.70;99.90;;;;;;5095119;28;20066;-85
2023/04/16 10:23:45;;;;;;;24.02;10.25;;;13.80;99.90;;;;;;5112690;28;20097;-85
2023/04/16 10:26:10;;;;;;;;;;;13.80;99.90;;;;;;5093797;28;20050;-85
2023/04/16 10:28:38;;;;;;;21.50;9.43;;;14.00;99.90;;;;;;5112469;27;21504;-84
2023/04/16 10:31:06;;;;;;;24.75;10.52;;;14.10;99.90;;;;;;5096429;28;20050;-86
2023/04/16 10:33:39;;;;;;;21.63;9.38;;;14.30;99.90;;;;;;5096421;28;20043;-86
2023/04/16 10:36:08;;;;;;;23.38;9.82;;;14.40;99.90;;;;;;5094381;28;20083;-84
2023/04/16 10:38:43;;;;;;;18.30;9.20;;;14.40;99.90;;;;;;5113279;27;20490;-84
2023/04/16 10:41:09;;;;;;;23.75;10.40;;;14.60;99.90;;;;;;5110538;28;20043;-84
2023/04/16 10:43:46;;;;;;;23.00;10.05;;;14.70;99.90;;;;;;5111327;28;20434;-84
2023/04/16 10:46:30;;;;;;;;;;;14.80;99.90;;;;;;5091172;28;20075;-85
2023/04/16 10:49:00;;;;;;;25.63;10.57;;;14.80;99.90;;;;;;5095523;28;19928;-86
2023/04/16 10:51:32;;;;;;;25.95;10.52;;;14.90;99.90;;;;;;5111771;28;20051;-87
2023/04/16 10:54:10;;;;;;;24.63;9.50;;;15.00;99.90;;;;;;5094389;28;20031;-86
2023/04/16 10:56:36;;;;;;;23.70;9.85;;;15.10;99.90;;;;;;5090361;28;20082;-85
2023/04/16 10:59:05;;;;;;;;;;;15.30;99.90;;;;;;5095520;28;20068;-87
2023/04/16 11:01:34;;;;;;;26.05;10.35;;;15.20;99.90;;;;;;5111086;28;20324;-86
2023/04/16 11:04:20;;;;;;;24.05;10.55;;;15.20;99.90;;;;;;5111627;28;20040;-86
2023/04/16 11:07:17;;;;;;;22.42;9.40;;;15.40;99.90;;;;;;5126343;27;20138;-86
2023/04/16 11:09:59;;;;;;;22.43;9.60;;;15.20;99.90;;;;;;5112789;27;20373;-86
2023/04/16 11:12:36;;;;;;;18.65;10.00;;;15.10;99.90;;;;;;5092737;28;20095;-86
2023/04/16 11:15:10;;;;;;;25.95;12.63;;;15.10;99.90;;;;;;5094666;28;20039;-85
2023/04/16 11:17:37;;;;;;;21.80;9.75;;;14.70;99.90;;;;;;5109904;28;20040;-84
2023/04/16 11:20:08;;;;;;;22.60;11.10;;;14.50;99.90;;;;;;5110910;27;20035;-84
2023/04/16 11:22:35;;;;;;;23.40;10.40;;;14.40;99.90;;;;;;5111523;28;20567;-85
2023/04/16 11:25:01;;;;;;;21.13;10.32;;;14.30;99.90;;;;;;5093285;28;20484;-84
2023/04/16 11:27:32;;;;;;;25.65;10.60;;;14.30;99.90;;;;;;5108509;28;20031;-84
2023/04/16 11:30:00;;;;;;;26.05;10.93;;;14.40;99.90;;;;;;5111230;27;20039;-84
2023/04/16 11:32:26;;;;;;;25.92;11.00;;;14.60;99.90;;;;;;5105499;28;20039;-84
2023/04/16 11:34:52;;;;;;;;;;;14.90;99.90;;;;;;5110660;28;20418;-84
2023/04/16 11:37:34;;;;;;;24.00;10.73;;;14.80;99.90;;;;;;5108645;28;19915;-85
2023/04/16 11:40:00;;;;;;;24.50;10.32;;;15.00;99.90;;;;;;5095575;28;20039;-86
2023/04/16 11:42:27;;;;;;;;;;;15.10;99.90;;;;;;5093730;28;20043;-83
2023/04/16 11:44:59;;;;;;;25.67;9.45;;;15.20;99.90;;;;;;5094473;28;20305;-85
2023/04/16 11:47:26;;;;;;;24.15;10.25;;;15.20;99.90;;;;;;5094492;28;20540;-85
2023/04/16 11:49:52;;;;;;;18.85;9.57;;;15.20;99.90;;;;;;5093928;28;20044;-85
2023/04/16 11:52:26;;;;;;;18.73;10.77;;;15.20;99.90;;;;;;5093832;28;20040;-84
2023/04/16 11:54:52;;;;;;;25.38;10.07;;;15.30;99.90;;;;;;5111742;28;20066;-84
2023/04/16 11:57:30;;;;;;;28.02;10.90;;;15.40;99.90;;;;;;5094734;28;20495;-85
2023/04/16 11:59:57;;;;;;;24.02;11.13;;;15.30;99.90;;;;;;5112110;28;20040;-84
2023/04/16 12:02:38;;;;;;;23.33;10.98;;;15.50;99.90;;;;;;5110578;28;20042;-83
2023/04/16 12:05:07;;;;;;;20.05;10.23;;;15.60;99.90;;;;;;5110645;28;20048;-88
2023/04/16 12:07:44;;;;;;;23.70;10.80;;;15.70;99.90;;;;;;5094295;28;20053;-87
2023/04/16 12:10:10;;;;;;;21.25;10.38;;;15.60;99.90;;;;;;5077101;28;20046;-87
2023/04/16 12:12:36;;;;;;;20.67;11.45;;;15.60;99.90;;;;;;5077830;28;20390;-88
2023/04/16 12:15:03;;;;;;;20.60;10.18;;;15.60;99.90;;;;;;5059482;28;20036;-87
2023/04/16 12:17:34;;;;;;;19.45;10.52;;;15.60;99.90;;;;;;5077371;28;20126;-88
2023/04/16 12:20:04;;;;;;;29.23;10.98;;;15.50;99.90;;;;;;5108866;28;20119;-88
2023/04/16 12:22:35;;;;;;;21.60;10.40;;;15.40;99.90;;;;;;5077277;28;20178;-88
2023/04/16 12:25:10;;;;;;;19.55;10.45;;;15.60;99.90;;;;;;5110856;28;20092;-88
2023/04/16 12:27:47;;;;;;;26.35;10.57;;;15.50;99.90;;;;;;5093719;28;20484;-88
2023/04/16 12:30:14;;;;;;;19.52;10.32;;;15.40;99.90;;;;;;5110888;28;20040;-88
2023/04/16 12:32:42;;;;;;;24.17;11.23;;;15.40;99.90;;;;;;5094475;28;20089;-88
2023/04/16 12:35:09;;;;;;;23.52;10.68;;;15.30;99.90;;;;;;5094752;28;20046;-88
2023/04/16 12:37:36;;;;;;;22.90;11.02;;;15.30;99.90;;;;;;5112107;28;20422;-87
2023/04/16 12:40:03;;;;;;;20.33;10.75;;;15.30;99.90;;;;;;5115414;28;20399;-87